createdAt,value
2022-10-05T00:03:31.345Z,100418.84
2022-10-05T00:07:31.169Z,100436.94
2022-10-05T00:11:25.153Z,100452.56
2022-10-05T00:15:26.598Z,100443.97
2022-10-05T00:19:37.195Z,100445.69
2022-10-05T00:23:43.579Z,100437.88
2022-10-05T00:27:49.338Z,100449.13
2022-10-05T00:31:43.282Z,100444.94
2022-10-05T00:35:49.192Z,100430.34
2022-10-05T00:39:49.233Z,100424.44
2022-10-05T00:44:13.416Z,100422.69
2022-10-05T00:48:11.398Z,100423.69
2022-10-05T00:51:55.146Z,100431.56
2022-10-05T00:55:55.178Z,100433.34
2022-10-05T01:00:01.140Z,100430.81
2022-10-05T01:04:01.174Z,100423.19
2022-10-05T01:08:12.261Z,100417.22
2022-10-05T01:12:07.372Z,100414.72
2022-10-05T01:15:55.219Z,100420.72
2022-10-05T01:20:01.389Z,100415.63
2022-10-05T01:24:13.194Z,100424.22
2022-10-05T01:28:15.106Z,100410.47
2022-10-05T01:32:13.356Z,100416.53
2022-10-05T01:36:07.248Z,100413.06
2022-10-05T01:40:01.229Z,100412.22
2022-10-05T01:43:47.131Z,100411.38
2022-10-05T01:47:49.203Z,100413.06
2022-10-05T01:51:43.192Z,100424.28
2022-10-05T01:55:45.478Z,100420.81
2022-10-05T02:09:00.559Z,100413.75
2022-10-05T02:12:33.964Z,100405.94
2022-10-05T02:16:00.418Z,100418.72
2022-10-05T02:19:25.433Z,100408.25
2022-10-05T02:22:50.143Z,100415.06
2022-10-05T02:26:14.912Z,100395.16
2022-10-05T02:29:50.285Z,100403.59
2022-10-05T02:33:19.094Z,100412.97
2022-10-05T02:36:41.875Z,100410.31
2022-10-05T02:40:26.144Z,100413.66
2022-10-05T02:44:01.440Z,100411.00
2022-10-05T02:47:33.635Z,100408.22
2022-10-05T02:51:05.125Z,100406.31
2022-10-05T02:54:39.565Z,100407.09
2022-10-05T02:58:09.074Z,100402.72
2022-10-05T03:01:39.926Z,100400.03
2022-10-05T03:05:20.238Z,100403.31
2022-10-05T03:08:51.542Z,100391.91
2022-10-05T03:12:26.233Z,100389.97
2022-10-05T03:16:28.169Z,100398.34
2022-10-05T03:20:24.734Z,100388.72
2022-10-05T03:24:00.879Z,100386.00
2022-10-05T03:27:33.543Z,100379.09
2022-10-05T03:35:26.298Z,100315.84
2022-10-05T03:39:53.359Z,100318.25
2022-10-05T03:44:04.137Z,100368.75
2022-10-05T03:48:22.078Z,100365.28
2022-10-05T03:52:26.607Z,100359.06
2022-10-05T03:56:37.309Z,100356.41
2022-10-05T04:00:29.908Z,100328.47
2022-10-05T04:04:09.274Z,100327.59
2022-10-05T04:08:17.535Z,100362.28
2022-10-05T04:12:47.380Z,100345.78
2022-10-05T04:16:37.572Z,100348.53
2022-10-05T04:20:44.780Z,100366.38
2022-10-05T04:24:40.005Z,100366.34
2022-10-05T04:29:07.790Z,100358.47
2022-10-05T04:37:06.677Z,100356.53
2022-10-05T04:41:32.022Z,100359.06
2022-10-05T04:45:57.218Z,100362.38
2022-10-05T04:50:02.129Z,100366.63
2022-10-05T04:54:04.053Z,100360.50
2022-10-05T04:58:06.484Z,100364.56
2022-10-05T05:13:25.740Z,100347.91
2022-10-05T05:17:24.328Z,100361.13
2022-10-05T05:21:23.175Z,100367.75
2022-10-05T05:29:29.056Z,100367.41
2022-10-05T05:33:46.687Z,100374.06
2022-10-05T05:42:00.449Z,100371.00
2022-10-05T05:50:46.203Z,100368.84
2022-10-05T05:54:54.586Z,100383.19
2022-10-05T05:58:54.031Z,100370.88
2022-10-05T06:02:47.976Z,100380.94
2022-10-05T06:06:58.907Z,100382.34
2022-10-05T06:10:52.308Z,100364.28
2022-10-05T06:15:04.047Z,100380.88
2022-10-05T06:23:31.165Z,100386.47
2022-10-05T06:32:05.023Z,100381.53
2022-10-05T06:40:37.472Z,100374.75
2022-10-05T06:44:28.567Z,100377.75
2022-10-05T06:48:22.500Z,100373.78
2022-10-05T06:52:22.970Z,100375.97
2022-10-05T06:56:06.307Z,100379.97
2022-10-05T07:00:02.638Z,100376.16
2022-10-05T07:04:11.423Z,100373.28
2022-10-05T07:08:16.389Z,100377.34
2022-10-05T07:16:10.758Z,100366.38
2022-10-05T07:20:18.820Z,100367.78
2022-10-05T07:24:17.061Z,100357.91
2022-10-05T07:28:24.515Z,100359.47
2022-10-05T07:32:18.264Z,100355.47
2022-10-05T07:36:44.215Z,100363.88
2022-10-05T07:40:39.624Z,100356.00
2022-10-05T07:44:43.528Z,100361.94
2022-10-05T07:49:00.503Z,100371.31
2022-10-05T07:52:46.564Z,100367.72
2022-10-05T07:56:23.688Z,100367.53
2022-10-05T08:00:15.236Z,100363.09
2022-10-05T08:08:16.682Z,100379.34
2022-10-05T08:12:26.708Z,100349.69
2022-10-05T08:16:52.462Z,100368.78
2022-10-05T08:25:05.647Z,100347.31
2022-10-05T08:28:57.924Z,100332.28
2022-10-05T08:32:43.408Z,100327.72
2022-10-05T08:36:44.903Z,100314.09
2022-10-05T08:41:07.722Z,100322.22
2022-10-05T08:45:50.529Z,100338.22
2022-10-05T08:50:05.975Z,100338.78
2022-10-05T08:54:10.242Z,100324.53
2022-10-05T08:58:34.789Z,100325.22
2022-10-05T09:02:21.960Z,100323.94
2022-10-05T09:06:43.550Z,100308.91
2022-10-05T09:12:06.862Z,100310.31
2022-10-05T09:15:25.882Z,100317.06
2022-10-05T09:19:27.820Z,100329.97
2022-10-05T09:23:21.341Z,100336.91
2022-10-05T09:27:10.829Z,100342.97
2022-10-05T09:31:18.073Z,100349.03
2022-10-05T09:35:32.846Z,100347.22
2022-10-05T09:39:22.300Z,100336.75
2022-10-05T09:43:35.742Z,100317.47
2022-10-05T09:47:24.429Z,100317.25
2022-10-05T09:51:21.771Z,100319.50
2022-10-05T09:55:16.820Z,100311.88
2022-10-05T09:59:06.620Z,100330.38
2022-10-05T10:02:58.176Z,100327.63
2022-10-05T10:06:54.201Z,100305.13
2022-10-05T10:10:54.919Z,100310.44
2022-10-05T10:14:53.997Z,100299.81
2022-10-05T10:18:47.347Z,100304.41
2022-10-05T10:22:29.519Z,100300.66
2022-10-05T10:26:47.808Z,100290.56
2022-10-05T10:30:40.156Z,100293.22
2022-10-05T10:34:40.204Z,100289.09
2022-10-05T10:38:31.091Z,100295.53
2022-10-05T10:42:22.552Z,100287.31
2022-10-05T10:45:56.382Z,100297.50
2022-10-05T10:49:36.883Z,100292.22
2022-10-05T10:53:19.926Z,100305.28
2022-10-05T10:56:57.513Z,100296.09
2022-10-05T11:00:42.219Z,100305.63
2022-10-05T11:04:24.705Z,100312.63
2022-10-05T11:08:03.940Z,100294.38
2022-10-05T11:11:40.117Z,100309.53
2022-10-05T11:15:24.459Z,100303.34
2022-10-05T11:19:24.884Z,100302.50
2022-10-05T11:23:00.093Z,100298.13
2022-10-05T11:27:03.751Z,100289.75
2022-10-05T11:30:50.503Z,100288.41
2022-10-05T11:34:55.176Z,100286.63
2022-10-05T11:39:04.993Z,100283.78
2022-10-05T11:43:13.516Z,100281.00
2022-10-05T11:46:46.406Z,100273.03
2022-10-05T11:50:20.556Z,100265.19
2022-10-05T11:53:50.535Z,100276.34
2022-10-05T11:57:19.382Z,100289.34
2022-10-05T12:00:48.770Z,100296.28
2022-10-05T12:04:20.773Z,100298.06
2022-10-05T12:07:53.412Z,100293.41
2022-10-05T12:11:30.069Z,100294.09
2022-10-05T12:14:57.559Z,100294.81
2022-10-05T12:18:42.804Z,100291.31
2022-10-05T12:22:15.567Z,100285.41
2022-10-05T12:25:43.768Z,100288.69
2022-10-05T12:29:13.700Z,100264.97
2022-10-05T12:32:42.644Z,100284.34
2022-10-05T12:36:06.875Z,100286.13
2022-10-05T12:39:40.988Z,100276.66
2022-10-05T12:43:07.664Z,100280.91
2022-10-05T12:46:38.166Z,100271.53
2022-10-05T12:50:13.261Z,100274.81
2022-10-05T12:53:48.587Z,100273.88
2022-10-05T12:57:21.137Z,100275.59
2022-10-05T13:00:50.086Z,100271.34
2022-10-05T13:04:19.146Z,100274.66
2022-10-05T13:08:00.099Z,100264.50
2022-10-05T13:11:28.890Z,100269.75
2022-10-05T13:14:56.718Z,100276.25
2022-10-05T13:18:30.328Z,100277.25
2022-10-05T13:22:08.734Z,100279.66
2022-10-05T13:25:34.158Z,100266.44
2022-10-05T13:29:03.920Z,100256.41
2022-10-05T13:32:32.384Z,100231.94
2022-10-05T13:36:01.977Z,100270.44
2022-10-05T13:39:37.840Z,100264.16
2022-10-05T13:43:05.074Z,100256.38
2022-10-05T13:46:35.694Z,100274.09
2022-10-05T13:50:05.388Z,100263.63
2022-10-05T13:53:32.904Z,100247.34
2022-10-05T13:57:06.708Z,100263.19
2022-10-05T14:00:28.917Z,100265.16
2022-10-05T14:04:16.135Z,100272.56
2022-10-05T14:07:49.772Z,100268.25
2022-10-05T14:11:33.832Z,100273.34
2022-10-05T14:14:57.226Z,100266.22
2022-10-05T14:18:24.997Z,100255.00
2022-10-05T14:21:53.599Z,100264.16
2022-10-05T14:25:19.949Z,100265.78
2022-10-05T14:28:43.738Z,100273.56
2022-10-05T14:32:15.014Z,100265.59
2022-10-05T14:35:49.096Z,100263.75
2022-10-05T14:39:14.226Z,100249.78
2022-10-05T14:42:47.288Z,100258.22
2022-10-05T14:46:27.945Z,100259.81
2022-10-05T14:50:10.856Z,100250.53
2022-10-05T14:53:40.492Z,100253.91
2022-10-05T14:57:10.120Z,100262.38
2022-10-05T15:00:38.845Z,100253.56
2022-10-05T15:04:21.783Z,100254.41
2022-10-05T15:07:47.995Z,100254.41
2022-10-05T15:11:14.860Z,100265.47
2022-10-05T15:14:40.597Z,100258.44
2022-10-05T15:18:15.171Z,100253.19
2022-10-05T15:21:55.395Z,100260.22
2022-10-05T15:25:23.173Z,100253.38
2022-10-05T15:28:54.522Z,100263.59
2022-10-05T15:32:26.054Z,100269.59
2022-10-05T15:36:08.367Z,100263.44
2022-10-05T15:39:37.958Z,100254.78
2022-10-05T15:43:04.304Z,100261.53
2022-10-05T15:46:35.193Z,100258.06
2022-10-05T15:50:06.803Z,100261.66
2022-10-05T15:53:39.387Z,100266.06
2022-10-05T15:57:12.382Z,100271.28
2022-10-05T16:00:38.015Z,100274.75
2022-10-05T16:04:06.375Z,100272.97
2022-10-05T16:07:53.937Z,100264.53
2022-10-05T16:11:26.888Z,100283.34
2022-10-05T16:15:05.317Z,100275.47
2022-10-05T16:18:48.491Z,100275.41
2022-10-05T16:22:22.363Z,100278.97
2022-10-05T16:25:53.939Z,100278.22
2022-10-05T16:29:28.623Z,100285.06
2022-10-05T16:32:59.992Z,100278.97
2022-10-05T16:36:33.604Z,100278.88
2022-10-05T16:40:00.642Z,100284.13
2022-10-05T16:43:33.325Z,100278.03
2022-10-05T16:47:01.067Z,100272.88
2022-10-05T16:50:30.323Z,100275.41
2022-10-05T16:54:01.323Z,100271.00
2022-10-05T16:57:25.105Z,100278.88
2022-10-05T17:01:13.986Z,100260.88
2022-10-05T17:04:46.180Z,100259.94
2022-10-05T17:08:27.960Z,100270.06
2022-10-05T17:12:22.586Z,100277.00
2022-10-05T17:16:01.365Z,100279.53
2022-10-05T17:19:41.559Z,100284.78
2022-10-05T17:23:18.418Z,100282.44
2022-10-05T17:26:59.391Z,100281.50
2022-10-05T17:30:37.683Z,100271.19
2022-10-05T17:34:14.373Z,100279.72
2022-10-05T17:37:39.903Z,100278.78
2022-10-05T17:41:28.586Z,100272.69
2022-10-05T17:44:50.687Z,100272.59
2022-10-05T17:48:13.851Z,100271.78
2022-10-05T17:52:20.473Z,100274.28
2022-10-05T17:55:47.249Z,100260.03
2022-10-05T17:59:12.318Z,100277.56
2022-10-05T18:02:44.050Z,100279.34
2022-10-05T18:06:42.529Z,100282.66
2022-10-05T18:10:29.031Z,100271.28
2022-10-05T18:13:50.973Z,100271.41
2022-10-05T18:17:17.312Z,100257.91
2022-10-05T18:20:44.872Z,100258.66
2022-10-05T18:24:34.659Z,100257.81
2022-10-05T18:28:11.792Z,100271.22
2022-10-05T18:31:40.340Z,100273.75
2022-10-05T18:35:11.586Z,100272.06
2022-10-05T18:38:48.526Z,100264.94
2022-10-05T18:42:23.114Z,100262.22
2022-10-05T18:46:00.756Z,100256.13
2022-10-05T18:49:37.833Z,100261.31
2022-10-05T18:53:13.336Z,100263.81
2022-10-05T18:56:42.323Z,100267.28
2022-10-05T19:00:11.928Z,100263.75
2022-10-05T19:03:41.579Z,100271.69
2022-10-05T19:07:17.422Z,100269.06
2022-10-05T19:10:46.182Z,100266.56
2022-10-05T19:14:19.668Z,100258.88
2022-10-05T19:18:22.908Z,100265.78
2022-10-05T19:21:52.863Z,100267.28
2022-10-05T19:25:27.759Z,100268.13
2022-10-05T19:29:02.972Z,100264.78
2022-10-05T19:32:33.081Z,100257.94
2022-10-05T19:36:12.002Z,100271.50
2022-10-05T19:39:42.991Z,100279.19
2022-10-05T19:43:22.392Z,100283.59
2022-10-05T19:47:02.598Z,100279.31
2022-10-05T19:50:30.461Z,100282.75
2022-10-05T19:53:56.087Z,100287.16
2022-10-05T19:57:18.819Z,100268.13
2022-10-05T20:00:42.505Z,100282.56
2022-10-05T20:04:07.023Z,100279.00
2022-10-05T20:07:29.310Z,100283.31
2022-10-05T20:11:06.893Z,100280.69
2022-10-05T20:14:32.231Z,100283.31
2022-10-05T20:18:11.591Z,100289.44
2022-10-05T20:21:41.574Z,100290.34
2022-10-05T20:25:06.329Z,100281.56
2022-10-05T20:28:32.284Z,100274.06
2022-10-05T20:31:54.358Z,100276.69
2022-10-05T20:35:17.022Z,100287.53
2022-10-05T20:38:41.377Z,100281.63
2022-10-05T20:42:03.941Z,100282.22
2022-10-05T20:45:26.001Z,100266.84
2022-10-05T20:48:48.017Z,100275.09
2022-10-05T20:52:11.486Z,100282.91
2022-10-05T20:55:35.275Z,100279.31
2022-10-05T20:58:57.238Z,100289.75
2022-10-05T21:02:20.220Z,100293.19
2022-10-05T21:05:42.077Z,100284.50
2022-10-05T21:09:03.851Z,100285.16
2022-10-05T21:12:27.111Z,100279.97
2022-10-05T21:15:48.760Z,100282.59
2022-10-05T21:19:12.418Z,100286.16
2022-10-05T21:22:36.434Z,100274.84
2022-10-05T21:25:58.516Z,100263.94
2022-10-05T21:29:22.290Z,100280.84
2022-10-05T21:32:44.949Z,100290.41
2022-10-05T21:36:06.986Z,100292.25
2022-10-05T21:39:28.920Z,100287.84
2022-10-05T21:42:50.994Z,100284.19
2022-10-05T21:46:18.458Z,100271.09
2022-10-05T21:49:40.161Z,100277.09
2022-10-05T21:53:03.957Z,100244.16
2022-10-05T21:56:30.772Z,100286.63
2022-10-05T21:59:52.228Z,100250.16
2022-10-05T22:03:15.416Z,100284.78
2022-10-05T22:06:37.555Z,100272.09
2022-10-05T22:09:59.398Z,100283.09
2022-10-05T22:13:23.045Z,100275.31
2022-10-05T22:16:45.548Z,100263.97
2022-10-05T22:20:13.222Z,100267.44
2022-10-05T22:23:36.112Z,100251.03
2022-10-05T22:26:58.216Z,100246.94
2022-10-05T22:30:21.567Z,100257.78
2022-10-05T22:33:43.196Z,100252.53
2022-10-05T22:37:08.184Z,100248.31
2022-10-05T22:40:30.485Z,100251.78
2022-10-05T22:43:52.869Z,100246.56
2022-10-05T22:47:14.311Z,100245.53
2022-10-05T22:50:36.324Z,100230.25
2022-10-05T22:53:59.563Z,100236.97
2022-10-05T22:57:21.808Z,100227.50
2022-10-05T23:00:59.133Z,100238.75
2022-10-05T23:04:21.267Z,100234.47
2022-10-05T23:07:44.824Z,100239.53
2022-10-05T23:11:09.354Z,100240.34
2022-10-05T23:14:33.344Z,100231.91
2022-10-05T23:17:56.284Z,100241.19
2022-10-05T23:21:19.044Z,100230.88
2022-10-05T23:24:40.948Z,100230.81
2022-10-05T23:28:04.640Z,100232.47
2022-10-05T23:31:28.938Z,100237.81
2022-10-05T23:34:50.837Z,100225.00
2022-10-05T23:38:12.913Z,100224.69
2022-10-05T23:41:34.918Z,100203.13
2022-10-05T23:44:58.129Z,100226.59
2022-10-05T23:48:20.065Z,100210.47
2022-10-05T23:51:41.677Z,100223.19
2022-10-05T23:55:03.668Z,100226.78
2022-10-05T23:58:25.758Z,100228.63
